createdAt,value
2022-11-21T00:03:20.088Z,99648.48
2022-11-21T00:18:10.730Z,99643.06
2022-11-21T00:33:00.984Z,99641.83
2022-11-21T00:47:52.567Z,99615.91
2022-11-21T01:02:42.718Z,99616.05
2022-11-21T01:17:32.693Z,99604.63
2022-11-21T01:32:23.737Z,99590.48
2022-11-21T01:47:14.219Z,99581.82
2022-11-21T02:02:04.902Z,99578.10
2022-11-21T02:16:56.612Z,99588.00
2022-11-21T02:31:46.413Z,99581.25
2022-11-21T02:46:37.700Z,99572.23
2022-11-21T03:01:28.539Z,99562.94
2022-11-21T03:16:19.062Z,99554.43
2022-11-21T03:31:10.135Z,99547.53
2022-11-21T03:46:01.155Z,99535.57
2022-11-21T04:00:52.309Z,99520.41
2022-11-21T04:15:43.403Z,99528.95
2022-11-21T04:30:34.262Z,99533.61
2022-11-21T04:45:25.030Z,99532.38
2022-11-21T05:00:24.172Z,99539.19
2022-11-21T05:15:08.725Z,99535.09
2022-11-21T05:30:00.169Z,99550.97
2022-11-21T05:44:53.193Z,99539.13
2022-11-21T05:59:44.587Z,99539.73
2022-11-21T06:14:40.236Z,99539.28
2022-11-21T06:29:30.767Z,99544.79
2022-11-21T06:44:21.904Z,99561.34
2022-11-21T06:59:12.943Z,99566.09
2022-11-21T07:28:55.369Z,99560.06
2022-11-21T07:43:46.086Z,99561.31
2022-11-21T07:58:36.364Z,99560.59
2022-11-21T08:13:27.856Z,99556.67
2022-11-21T08:28:18.574Z,99535.37
2022-11-21T08:43:09.838Z,99520.80
2022-11-21T08:58:01.533Z,99496.14
2022-11-21T09:12:52.976Z,99523.02
2022-11-21T09:27:47.036Z,99499.52
2022-11-21T09:42:45.383Z,99471.76
2022-11-21T09:57:41.408Z,99451.20
2022-11-21T10:12:50.814Z,99435.96
2022-11-21T10:27:48.363Z,99411.58
2022-11-21T10:42:55.243Z,99378.42
2022-11-21T10:57:52.636Z,99333.53
2022-11-21T11:13:05.248Z,99305.31
2022-11-21T11:27:59.357Z,99276.84
2022-11-21T11:43:30.995Z,99258.05
2022-11-21T11:58:44.292Z,99235.20
2022-11-21T12:13:41.002Z,99200.81
2022-11-21T12:28:51.051Z,99158.58
2022-11-21T12:43:50.838Z,99138.44
2022-11-21T12:58:38.925Z,99113.50
2022-11-21T13:13:29.743Z,99079.33
2022-11-21T13:28:20.460Z,99067.20
2022-11-21T13:43:34.252Z,99051.05
2022-11-21T13:58:34.837Z,99025.14
2022-11-21T14:13:30.305Z,98996.41
2022-11-21T14:28:26.986Z,98934.05
2022-11-21T14:43:29.037Z,98898.93
2022-11-21T14:58:23.748Z,98851.53
2022-11-21T15:13:13.791Z,98818.78
2022-11-21T15:28:04.623Z,98764.23
2022-11-21T15:42:54.969Z,98726.95
2022-11-21T15:57:44.535Z,98697.18
2022-11-21T16:12:35.227Z,98652.83
2022-11-21T16:27:25.735Z,98636.36
2022-11-21T16:42:15.270Z,98611.45
2022-11-21T16:57:04.434Z,98580.20
2022-11-21T17:11:54.847Z,98614.55
2022-11-21T17:56:57.123Z,98515.00
2022-11-21T18:11:46.441Z,98524.54
2022-11-21T18:26:37.319Z,98521.70
2022-11-21T18:41:28.274Z,98517.50
2022-11-21T18:56:18.651Z,98510.10
2022-11-21T19:11:09.293Z,98497.22
2022-11-21T19:26:02.825Z,98490.14
2022-11-21T19:41:15.033Z,98486.41
2022-11-21T19:56:10.140Z,98497.50
2022-11-21T20:11:04.744Z,98496.12
2022-11-21T20:25:57.197Z,98480.66
2022-11-21T20:40:49.124Z,98483.08
2022-11-21T20:55:38.313Z,98466.52
2022-11-21T21:13:49.228Z,98451.56
2022-11-21T21:25:45.566Z,98423.92
2022-11-21T21:40:36.759Z,98429.16
2022-11-21T21:55:27.579Z,98433.25
2022-11-21T22:10:18.529Z,98423.22
2022-11-21T22:25:10.039Z,98414.55
2022-11-21T22:40:01.325Z,98412.23
2022-11-21T22:54:51.805Z,98384.84
2022-11-21T23:09:52.157Z,98400.09
2022-11-21T23:24:33.787Z,98399.47
2022-11-21T23:39:25.417Z,98390.33
2022-11-21T23:54:15.290Z,98369.87
